createdAt,value
2022-08-01T00:00:22.867Z,14.90
2022-08-01T00:03:09.057Z,14.90
2022-08-01T00:05:38.776Z,14.80
2022-08-01T00:08:08.312Z,14.80
2022-08-01T00:10:36.265Z,14.70
2022-08-01T00:13:07.449Z,14.60
2022-08-01T00:15:36.903Z,14.60
2022-08-01T00:18:04.150Z,14.50
2022-08-01T00:20:31.485Z,14.50
2022-08-01T00:22:58.570Z,14.40
2022-08-01T00:25:33.981Z,14.50
2022-08-01T00:28:04.295Z,14.50
2022-08-01T00:30:31.999Z,14.50
2022-08-01T00:33:01.907Z,14.50
2022-08-01T00:35:31.805Z,14.50
2022-08-01T00:38:01.285Z,14.40
2022-08-01T00:40:30.540Z,14.40
2022-08-01T00:43:00.481Z,14.40
2022-08-01T00:45:36.930Z,14.40
2022-08-01T00:48:06.969Z,14.40
2022-08-01T00:50:36.185Z,14.40
2022-08-01T00:53:09.007Z,14.30
2022-08-01T00:55:49.360Z,14.40
2022-08-01T00:58:21.646Z,14.40
2022-08-01T01:00:53.322Z,14.30
2022-08-01T01:03:57.148Z,14.30
2022-08-01T01:06:34.110Z,14.30
2022-08-01T01:09:10.991Z,14.30
2022-08-01T01:11:49.047Z,14.30
2022-08-01T01:14:57.918Z,14.30
2022-08-01T01:17:49.701Z,14.30
2022-08-01T01:20:19.281Z,14.30
2022-08-01T01:22:50.217Z,14.20
2022-08-01T01:25:38.036Z,14.20
2022-08-01T01:28:20.101Z,14.30
2022-08-01T01:30:54.735Z,14.30
2022-08-01T01:33:24.858Z,14.20
2022-08-01T01:35:58.660Z,14.20
2022-08-01T01:38:33.277Z,14.20
2022-08-01T01:41:02.465Z,14.20
2022-08-01T01:43:36.219Z,14.20
2022-08-01T01:46:09.526Z,14.20
2022-08-01T01:48:44.179Z,14.20
2022-08-01T01:51:13.074Z,14.20
2022-08-01T01:53:44.446Z,14.20
2022-08-01T01:56:17.127Z,14.20
2022-08-01T01:58:55.216Z,14.20
2022-08-01T02:01:58.156Z,14.10
2022-08-01T02:04:14.815Z,14.10
2022-08-01T02:06:47.794Z,14.10
2022-08-01T02:09:22.616Z,14.10
2022-08-01T02:11:59.173Z,14.10
2022-08-01T02:14:43.162Z,14.10
2022-08-01T02:17:19.631Z,14.10
2022-08-01T02:19:49.722Z,14.10
2022-08-01T02:22:43.407Z,14.00
2022-08-01T02:25:28.906Z,14.00
2022-08-01T02:28:16.666Z,14.00
2022-08-01T02:30:48.690Z,13.90
2022-08-01T02:33:21.949Z,13.90
2022-08-01T02:36:31.797Z,13.90
2022-08-01T02:38:46.875Z,13.90
2022-08-01T02:41:20.716Z,13.90
2022-08-01T02:43:55.980Z,13.90
2022-08-01T02:46:44.393Z,14.00
2022-08-01T02:49:12.144Z,14.00
2022-08-01T02:51:43.313Z,13.90
2022-08-01T02:54:11.782Z,14.00
2022-08-01T02:56:43.074Z,13.90
2022-08-01T02:59:16.005Z,13.90
2022-08-01T03:01:55.179Z,13.90
2022-08-01T03:04:26.174Z,13.90
2022-08-01T03:06:59.461Z,13.90
2022-08-01T03:09:29.209Z,13.90
2022-08-01T03:12:01.806Z,13.90
2022-08-01T03:14:31.155Z,13.90
2022-08-01T03:17:04.217Z,13.90
2022-08-01T03:19:32.532Z,13.90
2022-08-01T03:22:00.670Z,14.00
2022-08-01T03:24:29.318Z,13.90
2022-08-01T03:27:02.702Z,14.00
2022-08-01T03:29:32.987Z,14.00
2022-08-01T03:32:03.786Z,14.00
2022-08-01T03:34:35.940Z,14.00
2022-08-01T03:37:32.790Z,14.10
2022-08-01T03:40:06.846Z,14.10
2022-08-01T03:42:46.725Z,14.10
2022-08-01T03:45:21.701Z,14.20
2022-08-01T03:47:52.253Z,14.20
2022-08-01T03:50:25.901Z,14.10
2022-08-01T03:53:00.049Z,14.20
2022-08-01T03:55:32.301Z,14.20
2022-08-01T03:58:00.690Z,14.30
2022-08-01T04:00:28.927Z,14.30
2022-08-01T04:02:59.326Z,14.30
2022-08-01T04:05:26.723Z,14.40
2022-08-01T04:07:56.925Z,14.40
2022-08-01T04:10:27.659Z,14.40
2022-08-01T04:12:55.103Z,14.40
2022-08-01T04:15:26.554Z,14.40
2022-08-01T04:17:55.907Z,14.40
2022-08-01T04:20:25.690Z,14.50
2022-08-01T04:22:57.683Z,14.50
2022-08-01T04:25:37.387Z,14.50
2022-08-01T04:28:08.443Z,14.60
2022-08-01T04:30:40.592Z,14.60
2022-08-01T04:33:17.865Z,14.60
2022-08-01T04:36:02.554Z,14.70
2022-08-01T04:38:37.686Z,14.70
2022-08-01T04:41:09.966Z,14.80
2022-08-01T04:43:44.365Z,14.80
2022-08-01T04:46:15.327Z,14.90
2022-08-01T04:48:43.151Z,15.00
2022-08-01T04:51:22.981Z,15.00
2022-08-01T04:53:53.163Z,15.10
2022-08-01T04:56:21.831Z,15.20
2022-08-01T04:59:20.158Z,15.20
2022-08-01T05:01:53.469Z,15.30
2022-08-01T05:04:22.769Z,15.30
2022-08-01T05:06:50.241Z,15.40
2022-08-01T05:09:17.398Z,15.50
2022-08-01T05:11:46.505Z,15.50
2022-08-01T05:14:18.258Z,15.60
2022-08-01T05:16:48.531Z,15.70
2022-08-01T05:19:16.010Z,15.70
2022-08-01T05:21:45.522Z,15.80
2022-08-01T05:24:15.098Z,15.80
2022-08-01T05:26:44.177Z,15.90
2022-08-01T05:29:14.104Z,16.00
2022-08-01T05:31:43.461Z,16.10
2022-08-01T05:34:14.909Z,16.10
2022-08-01T05:36:45.531Z,16.20
2022-08-01T05:39:13.365Z,16.30
2022-08-01T05:41:43.196Z,16.30
2022-08-01T05:44:14.767Z,16.40
2022-08-01T05:46:44.839Z,16.40
2022-08-01T05:49:14.438Z,16.40
2022-08-01T05:51:48.760Z,16.50
2022-08-01T05:54:16.181Z,16.60
2022-08-01T05:56:43.300Z,16.70
2022-08-01T05:59:10.565Z,16.80
2022-08-01T06:01:40.013Z,16.90
2022-08-01T06:04:14.281Z,17.00
2022-08-01T06:06:43.659Z,17.10
2022-08-01T06:09:10.822Z,17.10
2022-08-01T06:11:38.162Z,17.20
2022-08-01T06:14:07.870Z,17.20
2022-08-01T06:16:37.496Z,17.20
2022-08-01T06:19:09.768Z,17.30
2022-08-01T06:21:39.302Z,17.40
2022-08-01T06:24:06.578Z,17.50
2022-08-01T06:26:38.147Z,17.50
2022-08-01T06:29:07.397Z,17.60
2022-08-01T06:31:39.619Z,17.70
2022-08-01T06:34:06.729Z,17.80
2022-08-01T06:36:36.754Z,17.80
2022-08-01T06:39:13.801Z,18.00
2022-08-01T06:41:42.622Z,18.00
2022-08-01T06:44:09.866Z,18.10
2022-08-01T06:46:36.918Z,18.20
2022-08-01T06:49:09.104Z,18.30
2022-08-01T06:51:36.519Z,18.30
2022-08-01T06:54:06.058Z,18.40
2022-08-01T06:56:33.245Z,18.50
2022-08-01T06:59:02.735Z,18.60
2022-08-01T07:01:35.228Z,18.70
2022-08-01T07:04:07.532Z,18.70
2022-08-01T07:06:34.937Z,18.80
2022-08-01T07:09:08.427Z,18.90
2022-08-01T07:11:42.010Z,18.90
2022-08-01T07:14:11.415Z,19.00
2022-08-01T07:16:38.729Z,19.00
2022-08-01T07:19:06.273Z,19.10
2022-08-01T07:21:40.194Z,19.20
2022-08-01T07:24:15.381Z,19.20
2022-08-01T07:26:53.281Z,19.30
2022-08-01T07:29:29.759Z,19.40
2022-08-01T07:31:58.457Z,19.40
2022-08-01T07:34:26.595Z,19.40
2022-08-01T07:36:53.830Z,19.50
2022-08-01T07:39:25.482Z,19.50
2022-08-01T07:42:07.426Z,19.70
2022-08-01T07:44:37.809Z,19.80
2022-08-01T07:47:08.494Z,19.90
2022-08-01T07:49:40.710Z,19.90
2022-08-01T07:52:11.287Z,20.00
2022-08-01T07:54:42.802Z,20.00
2022-08-01T07:57:12.402Z,19.90
2022-08-01T07:59:41.968Z,19.90
2022-08-01T08:02:09.647Z,19.90
2022-08-01T08:04:37.372Z,19.90
2022-08-01T08:07:04.932Z,20.00
2022-08-01T08:09:37.485Z,20.10
2022-08-01T08:12:06.691Z,20.20
2022-08-01T08:14:42.153Z,20.30
2022-08-01T08:17:11.818Z,20.40
2022-08-01T08:19:40.162Z,20.50
2022-08-01T08:22:09.372Z,20.60
2022-08-01T08:24:47.169Z,20.70
2022-08-01T08:27:21.994Z,20.80
2022-08-01T08:29:52.282Z,20.90
2022-08-01T08:32:19.585Z,21.00
2022-08-01T08:34:47.021Z,21.00
2022-08-01T08:37:18.161Z,21.10
2022-08-01T08:39:50.186Z,21.30
2022-08-01T08:42:19.592Z,21.40
2022-08-01T08:44:51.486Z,21.50
2022-08-01T08:47:22.489Z,21.50
2022-08-01T08:49:56.390Z,21.60
2022-08-01T08:52:26.286Z,21.70
2022-08-01T08:54:56.865Z,21.90
2022-08-01T08:57:26.732Z,22.00
2022-08-01T08:59:56.919Z,22.20
2022-08-01T09:02:27.038Z,22.20
2022-08-01T09:04:54.682Z,22.20
2022-08-01T09:07:27.108Z,22.20
2022-08-01T09:09:56.831Z,22.40
2022-08-01T09:12:31.467Z,22.50
2022-08-01T09:15:01.592Z,22.50
2022-08-01T09:17:41.556Z,22.50
2022-08-01T09:20:23.674Z,22.60
2022-08-01T09:22:53.791Z,22.60
2022-08-01T09:25:21.198Z,22.70
2022-08-01T09:28:06.909Z,22.60
2022-08-01T09:30:43.549Z,22.60
2022-08-01T09:33:18.155Z,22.50
2022-08-01T09:35:56.575Z,22.50
2022-08-01T09:38:30.177Z,22.50
2022-08-01T09:41:01.975Z,22.60
2022-08-01T09:43:34.702Z,22.60
2022-08-01T09:46:14.684Z,22.70
2022-08-01T09:49:07.501Z,22.80
2022-08-01T09:51:59.718Z,22.80
2022-08-01T09:54:34.533Z,23.00
2022-08-01T09:57:18.864Z,23.00
2022-08-01T10:00:01.502Z,23.10
2022-08-01T10:02:42.155Z,23.20
2022-08-01T10:05:21.206Z,23.20
2022-08-01T10:08:07.899Z,23.20
2022-08-01T10:10:40.326Z,23.30
2022-08-01T10:13:11.578Z,23.30
2022-08-01T10:15:44.231Z,23.30
2022-08-01T10:18:16.655Z,23.20
2022-08-01T10:20:58.746Z,23.30
2022-08-01T10:23:39.769Z,23.20
2022-08-01T10:26:11.183Z,23.20
2022-08-01T10:28:42.318Z,23.30
2022-08-01T10:31:15.112Z,23.30
2022-08-01T10:33:51.334Z,23.20
2022-08-01T10:36:27.838Z,23.30
2022-08-01T10:39:02.376Z,23.40
2022-08-01T10:41:31.818Z,23.50
2022-08-01T10:44:04.589Z,23.70
2022-08-01T10:46:39.494Z,23.80
2022-08-01T10:49:20.031Z,23.80
2022-08-01T10:51:51.258Z,23.70
2022-08-01T10:54:20.382Z,23.60
2022-08-01T10:56:53.443Z,23.50
2022-08-01T10:59:29.129Z,23.60
2022-08-01T11:02:34.429Z,23.70
2022-08-01T11:05:23.928Z,23.80
2022-08-01T11:07:57.227Z,24.10
2022-08-01T11:10:46.424Z,24.20
2022-08-01T11:13:36.276Z,24.30
2022-08-01T11:16:30.094Z,24.50
2022-08-01T11:18:59.933Z,24.50
2022-08-01T11:21:59.125Z,24.50
2022-08-01T11:25:01.308Z,24.50
2022-08-01T11:27:36.622Z,24.50
2022-08-01T11:30:12.807Z,24.50
2022-08-01T11:33:12.121Z,24.50
2022-08-01T11:36:11.640Z,24.60
2022-08-01T11:38:58.698Z,24.70
2022-08-01T11:41:37.115Z,24.70
2022-08-01T11:44:07.295Z,24.70
2022-08-01T11:46:56.895Z,24.50
2022-08-01T11:49:29.492Z,24.40
2022-08-01T11:52:06.730Z,24.30
2022-08-01T11:54:38.541Z,24.20
2022-08-01T11:57:11.878Z,24.10
2022-08-01T12:00:08.766Z,24.10
2022-08-01T12:02:42.481Z,24.00
2022-08-01T12:05:15.658Z,24.00
2022-08-01T12:07:50.156Z,24.10
2022-08-01T12:10:21.845Z,24.20
2022-08-01T12:12:53.170Z,24.30
2022-08-01T12:15:23.792Z,24.30
2022-08-01T12:18:02.553Z,24.40
2022-08-01T12:20:36.742Z,24.40
2022-08-01T12:23:14.522Z,24.40
2022-08-01T12:25:44.951Z,24.40
2022-08-01T12:28:18.890Z,24.50
2022-08-01T12:30:49.819Z,24.50
2022-08-01T12:33:23.275Z,24.60
2022-08-01T12:35:53.849Z,24.60
2022-08-01T12:38:27.904Z,24.60
2022-08-01T12:40:56.768Z,24.70
2022-08-01T12:43:32.861Z,24.70
2022-08-01T12:46:03.475Z,24.80
2022-08-01T12:48:33.600Z,24.80
2022-08-01T12:51:03.249Z,24.90
2022-08-01T12:53:41.084Z,25.00
2022-08-01T12:56:12.437Z,25.10
2022-08-01T12:58:39.956Z,25.20
2022-08-01T13:01:12.443Z,25.20
2022-08-01T13:04:05.195Z,25.30
2022-08-01T13:06:33.553Z,25.30
2022-08-01T13:09:14.358Z,25.30
2022-08-01T13:11:59.006Z,25.50
2022-08-01T13:14:36.906Z,25.50
2022-08-01T13:17:09.010Z,25.50
2022-08-01T13:19:45.638Z,25.50
2022-08-01T13:22:12.762Z,25.50
2022-08-01T13:24:39.821Z,25.50
2022-08-01T13:27:24.852Z,25.60
2022-08-01T13:29:53.890Z,25.80
2022-08-01T13:32:28.975Z,25.90
2022-08-01T13:35:04.460Z,25.90
2022-08-01T13:37:34.292Z,25.90
2022-08-01T13:40:04.202Z,25.90
2022-08-01T13:42:34.290Z,26.00
2022-08-01T13:45:14.197Z,26.00
2022-08-01T13:48:11.452Z,26.10
2022-08-01T13:50:34.675Z,26.00
2022-08-01T13:53:04.605Z,26.00
2022-08-01T13:55:35.202Z,26.00
2022-08-01T13:58:03.851Z,26.00
2022-08-01T14:00:36.941Z,26.00
2022-08-01T14:03:04.489Z,26.00
2022-08-01T14:05:31.837Z,26.00
2022-08-01T14:08:04.253Z,25.90
2022-08-01T14:10:34.142Z,25.90
2022-08-01T14:13:02.379Z,25.90
2022-08-01T14:15:39.353Z,25.80
2022-08-01T14:18:11.539Z,25.80
2022-08-01T14:20:44.027Z,25.70
2022-08-01T14:23:16.338Z,25.70
2022-08-01T14:26:03.014Z,25.60
2022-08-01T14:28:35.525Z,25.50
2022-08-01T14:31:09.809Z,25.50
2022-08-01T14:33:40.348Z,25.50
2022-08-01T14:36:29.131Z,25.50
2022-08-01T14:39:01.502Z,25.60
2022-08-01T14:41:30.871Z,25.60
2022-08-01T14:44:00.822Z,25.60
2022-08-01T14:46:35.477Z,25.60
2022-08-01T14:49:02.610Z,25.60
2022-08-01T14:51:34.012Z,25.60
2022-08-01T14:54:01.294Z,25.60
2022-08-01T14:56:31.015Z,25.60
2022-08-01T14:59:02.941Z,25.50
2022-08-01T15:01:33.227Z,25.30
2022-08-01T15:04:00.479Z,25.30
2022-08-01T15:06:30.242Z,25.30
2022-08-01T15:08:57.574Z,25.30
2022-08-01T15:11:24.715Z,25.30
2022-08-01T15:14:20.327Z,25.30
2022-08-01T15:16:52.299Z,25.20
2022-08-01T15:19:22.391Z,25.10
2022-08-01T15:21:51.815Z,25.10
2022-08-01T15:24:23.502Z,25.10
2022-08-01T15:26:53.318Z,25.10
2022-08-01T15:29:22.633Z,25.00
2022-08-01T15:31:57.650Z,25.00
2022-08-01T15:34:27.636Z,24.90
2022-08-01T15:36:57.139Z,24.90
2022-08-01T15:39:26.758Z,24.90
2022-08-01T15:41:58.789Z,25.00
2022-08-01T15:44:26.279Z,24.90
2022-08-01T15:46:55.533Z,25.00
2022-08-01T15:49:23.457Z,25.00
2022-08-01T15:51:52.994Z,24.90
2022-08-01T15:54:25.213Z,25.00
2022-08-01T15:56:52.513Z,25.00
2022-08-01T15:59:19.945Z,25.10
2022-08-01T16:01:52.875Z,25.30
2022-08-01T16:04:22.494Z,25.60
2022-08-01T16:06:59.353Z,25.90
2022-08-01T16:34:55.101Z,26.30
2022-08-01T16:37:27.274Z,30.10
2022-08-01T16:42:27.818Z,28.90
2022-08-01T16:44:55.060Z,27.60
2022-08-01T16:47:22.367Z,27.20
2022-08-01T16:49:54.217Z,26.80
2022-08-01T16:52:21.458Z,26.60
2022-08-01T16:54:48.889Z,26.50
2022-08-01T16:57:16.766Z,26.30
2022-08-01T16:59:46.209Z,26.10
2022-08-01T17:02:16.062Z,26.00
2022-08-01T17:04:48.172Z,25.70
2022-08-01T17:07:15.561Z,25.50
2022-08-01T17:09:43.635Z,25.30
2022-08-01T17:12:22.395Z,25.00
2022-08-01T17:14:50.832Z,24.80
2022-08-01T17:17:18.377Z,24.60
2022-08-01T17:19:51.234Z,24.60
2022-08-01T17:22:19.174Z,24.40
2022-08-01T17:24:46.446Z,24.30
2022-08-01T17:27:18.220Z,23.70
2022-08-01T17:29:52.980Z,24.00
2022-08-01T17:32:20.245Z,24.00
2022-08-01T17:34:52.330Z,23.80
2022-08-01T17:37:21.794Z,23.80
2022-08-01T17:44:54.281Z,23.60
2022-08-01T17:47:48.518Z,23.60
2022-08-01T17:50:14.990Z,23.50
2022-08-01T17:52:42.409Z,23.50
2022-08-01T17:55:53.337Z,23.40
2022-08-01T17:58:09.682Z,23.30
2022-08-01T18:00:39.459Z,23.30
2022-08-01T18:03:09.170Z,23.30
2022-08-01T18:05:41.698Z,23.20
2022-08-01T18:08:09.044Z,23.10
2022-08-01T18:10:39.913Z,23.00
2022-08-01T18:13:07.691Z,23.00
2022-08-01T18:15:35.523Z,22.80
2022-08-01T18:18:05.507Z,22.80
2022-08-01T18:20:35.276Z,22.70
2022-08-01T18:23:08.679Z,22.70
2022-08-01T18:25:38.775Z,22.70
2022-08-01T18:28:29.587Z,22.70
2022-08-01T18:30:59.604Z,22.70
2022-08-01T18:33:29.232Z,22.60
2022-08-01T18:36:01.780Z,22.40
2022-08-01T18:38:35.038Z,22.50
2022-08-01T18:41:05.623Z,22.30
2022-08-01T18:43:40.139Z,22.30
2022-08-01T18:46:07.411Z,22.20
2022-08-01T18:48:37.045Z,22.20
2022-08-01T18:51:09.224Z,22.20
2022-08-01T18:53:41.678Z,22.20
2022-08-01T18:56:12.166Z,22.10
2022-08-01T18:58:44.746Z,22.10
2022-08-01T19:01:14.550Z,22.10
2022-08-01T19:03:47.028Z,22.10
2022-08-01T19:06:19.027Z,22.00
2022-08-01T19:08:49.105Z,22.00
2022-08-01T19:11:18.638Z,22.00
2022-08-01T19:13:47.948Z,22.00
2022-08-01T19:16:17.794Z,21.90
2022-08-01T19:18:47.570Z,22.00
2022-08-01T19:21:20.946Z,21.90
2022-08-01T19:24:07.050Z,21.90
2022-08-01T19:26:37.327Z,21.90
2022-08-01T19:29:35.490Z,21.90
2022-08-01T19:32:08.197Z,21.90
2022-08-01T19:34:41.930Z,21.80
2022-08-01T19:37:11.411Z,21.80
2022-08-01T19:39:46.929Z,21.80
2022-08-01T19:42:20.047Z,21.70
2022-08-01T19:44:51.251Z,21.80
2022-08-01T19:47:23.852Z,21.80
2022-08-01T19:49:53.928Z,21.80
2022-08-01T19:52:26.140Z,21.80
2022-08-01T19:55:03.323Z,21.80
2022-08-01T19:57:45.432Z,21.80
2022-08-01T20:00:28.024Z,21.70
2022-08-01T20:02:57.550Z,21.70
2022-08-01T20:05:27.189Z,21.70
2022-08-01T20:07:56.824Z,21.70
2022-08-01T20:10:24.263Z,21.70
2022-08-01T20:12:56.612Z,21.60
2022-08-01T20:15:29.387Z,21.60
2022-08-01T20:17:59.175Z,21.60
2022-08-01T20:20:28.908Z,21.70
2022-08-01T20:22:57.464Z,21.50
2022-08-01T20:25:39.534Z,21.50
2022-08-01T20:28:11.067Z,21.50
2022-08-01T20:30:44.862Z,21.40
2022-08-01T20:33:15.825Z,21.40
2022-08-01T20:35:51.525Z,21.40
2022-08-01T20:38:25.194Z,21.40
2022-08-01T20:41:02.599Z,21.30
2022-08-01T20:43:29.856Z,21.30
2022-08-01T20:45:57.650Z,21.20
2022-08-01T20:48:31.249Z,21.20
2022-08-01T20:51:14.653Z,21.20
2022-08-01T20:53:49.014Z,21.10
2022-08-01T20:56:20.142Z,21.10
2022-08-01T20:59:05.084Z,21.00
2022-08-01T21:01:46.317Z,21.00
2022-08-01T21:04:44.115Z,21.00
2022-08-01T21:07:20.365Z,20.90
2022-08-01T21:09:59.506Z,20.90
2022-08-01T21:12:57.156Z,20.90
2022-08-01T21:15:29.458Z,20.80
2022-08-01T21:18:06.935Z,20.80
2022-08-01T21:20:41.919Z,20.80
2022-08-01T21:23:29.794Z,20.80
2022-08-01T21:25:58.907Z,20.80
2022-08-01T21:28:29.478Z,20.80
2022-08-01T21:30:58.608Z,20.80
2022-08-01T21:33:28.807Z,20.80
2022-08-01T21:36:05.803Z,20.80
2022-08-01T21:38:37.347Z,20.80
2022-08-01T21:41:09.909Z,20.80
2022-08-01T21:43:45.250Z,20.80
2022-08-01T21:46:17.370Z,20.80
2022-08-01T21:48:47.168Z,20.80
2022-08-01T21:51:32.350Z,20.80
2022-08-01T21:54:10.359Z,20.70
2022-08-01T21:57:10.451Z,20.70
2022-08-01T22:00:02.400Z,20.70
2022-08-01T22:03:25.430Z,20.60
2022-08-01T22:05:58.458Z,20.60
2022-08-01T22:08:51.897Z,20.60
2022-08-01T22:11:33.549Z,20.60
2022-08-01T22:14:06.171Z,20.50
2022-08-01T22:16:42.607Z,20.50
2022-08-01T22:19:32.359Z,20.50
2022-08-01T22:22:42.499Z,20.50
2022-08-01T22:24:58.672Z,20.60
2022-08-01T22:28:06.106Z,20.40
2022-08-01T22:30:20.907Z,20.40
2022-08-01T22:33:15.679Z,20.40
2022-08-01T22:35:40.374Z,20.40
2022-08-01T22:38:07.848Z,20.40
2022-08-01T22:40:45.976Z,20.30
2022-08-01T22:43:24.202Z,20.40
2022-08-01T22:46:23.881Z,20.30
2022-08-01T22:49:08.979Z,20.30
2022-08-01T22:51:54.569Z,20.20
2022-08-01T22:54:41.326Z,20.30
2022-08-01T22:57:21.379Z,20.20
2022-08-01T23:00:05.071Z,20.10
2022-08-01T23:02:39.591Z,20.00
2022-08-01T23:07:43.789Z,19.30
2022-08-01T23:12:41.771Z,20.00
2022-08-01T23:15:14.722Z,19.90
2022-08-01T23:17:46.571Z,19.90
2022-08-01T23:20:14.838Z,19.80
2022-08-01T23:22:45.322Z,19.80
2022-08-01T23:25:18.237Z,19.70
2022-08-01T23:28:03.373Z,19.70
2022-08-01T23:30:36.038Z,19.70
2022-08-01T23:33:05.577Z,19.70
2022-08-01T23:35:38.671Z,19.60
2022-08-01T23:38:11.437Z,19.60
2022-08-01T23:40:41.574Z,19.50
2022-08-01T23:43:16.758Z,19.50
2022-08-01T23:46:02.170Z,19.50
2022-08-01T23:48:37.425Z,19.50
2022-08-01T23:51:17.267Z,19.50
2022-08-01T23:53:58.721Z,19.40
2022-08-01T23:56:30.503Z,19.40
2022-08-01T23:59:01.231Z,19.40
